sensor_id;sensor_type;location;lat;lon;timestamp;P1;durP1;ratioP1;P2;durP2;ratioP2
73107;SDS011;61559;50.476;15.588;2023-04-29T00:01:05;9.30;;;6.40;;
73107;SDS011;61559;50.476;15.588;2023-04-29T00:03:36;8.80;;;6.10;;
73107;SDS011;61559;50.476;15.588;2023-04-29T00:06:08;11.80;;;6.90;;
73107;SDS011;61559;50.476;15.588;2023-04-29T00:08:39;10.40;;;5.90;;
73107;SDS011;61559;50.476;15.588;2023-04-29T00:11:11;8.50;;;5.60;;
73107;SDS011;61559;50.476;15.588;2023-04-29T00:16:11;10.30;;;6.10;;
73107;SDS011;61559;50.476;15.588;2023-04-29T00:18:42;10.20;;;6.10;;
73107;SDS011;61559;50.476;15.588;2023-04-29T00:21:13;9.40;;;6.00;;
73107;SDS011;61559;50.476;15.588;2023-04-29T00:23:44;10.20;;;6.60;;
73107;SDS011;61559;50.476;15.588;2023-04-29T00:26:16;11.20;;;7.10;;
73107;SDS011;61559;50.476;15.588;2023-04-29T00:28:47;9.40;;;6.30;;
73107;SDS011;61559;50.476;15.588;2023-04-29T00:33:48;9.50;;;5.60;;
73107;SDS011;61559;50.476;15.588;2023-04-29T00:36:20;10.30;;;6.30;;
73107;SDS011;61559;50.476;15.588;2023-04-29T00:38:52;10.40;;;6.40;;
73107;SDS011;61559;50.476;15.588;2023-04-29T00:41:26;8.40;;;6.10;;
73107;SDS011;61559;50.476;15.588;2023-04-29T00:43:58;10.00;;;6.80;;
73107;SDS011;61559;50.476;15.588;2023-04-29T00:46:29;11.40;;;7.50;;
73107;SDS011;61559;50.476;15.588;2023-04-29T00:49:00;11.80;;;6.40;;
73107;SDS011;61559;50.476;15.588;2023-04-29T00:51:31;9.70;;;6.20;;
73107;SDS011;61559;50.476;15.588;2023-04-29T00:54:04;11.00;;;6.40;;
73107;SDS011;61559;50.476;15.588;2023-04-29T00:56:36;10.60;;;6.70;;
73107;SDS011;61559;50.476;15.588;2023-04-29T00:59:10;11.20;;;6.70;;
73107;SDS011;61559;50.476;15.588;2023-04-29T01:01:42;10.90;;;6.20;;
73107;SDS011;61559;50.476;15.588;2023-04-29T01:04:14;7.70;;;5.10;;
73107;SDS011;61559;50.476;15.588;2023-04-29T01:06:49;10.10;;;5.60;;
73107;SDS011;61559;50.476;15.588;2023-04-29T01:09:29;9.50;;;5.40;;
73107;SDS011;61559;50.476;15.588;2023-04-29T01:12:23;8.40;;;5.70;;
73107;SDS011;61559;50.476;15.588;2023-04-29T01:15:03;9.50;;;5.90;;
73107;SDS011;61559;50.476;15.588;2023-04-29T01:17:40;10.90;;;5.60;;
73107;SDS011;61559;50.476;15.588;2023-04-29T01:20:17;8.70;;;5.30;;
73107;SDS011;61559;50.476;15.588;2023-04-29T01:22:49;8.50;;;6.60;;
73107;SDS011;61559;50.476;15.588;2023-04-29T01:25:20;10.10;;;6.00;;
73107;SDS011;61559;50.476;15.588;2023-04-29T01:27:54;9.40;;;5.80;;
73107;SDS011;61559;50.476;15.588;2023-04-29T01:30:34;10.90;;;5.20;;
73107;SDS011;61559;50.476;15.588;2023-04-29T01:33:18;13.20;;;6.30;;
73107;SDS011;61559;50.476;15.588;2023-04-29T01:36:02;11.00;;;6.00;;
73107;SDS011;61559;50.476;15.588;2023-04-29T01:38:43;9.10;;;5.60;;
73107;SDS011;61559;50.476;15.588;2023-04-29T01:41:24;13.70;;;7.20;;
73107;SDS011;61559;50.476;15.588;2023-04-29T01:44:01;10.80;;;6.50;;
73107;SDS011;61559;50.476;15.588;2023-04-29T01:46:36;11.40;;;6.30;;
73107;SDS011;61559;50.476;15.588;2023-04-29T01:49:09;14.40;;;6.90;;
73107;SDS011;61559;50.476;15.588;2023-04-29T01:51:40;14.50;;;6.60;;
73107;SDS011;61559;50.476;15.588;2023-04-29T01:54:12;10.60;;;6.80;;
73107;SDS011;61559;50.476;15.588;2023-04-29T01:56:43;14.10;;;6.30;;
73107;SDS011;61559;50.476;15.588;2023-04-29T01:59:15;9.80;;;5.30;;
73107;SDS011;61559;50.476;15.588;2023-04-29T02:01:46;10.70;;;5.80;;
73107;SDS011;61559;50.476;15.588;2023-04-29T02:04:17;9.90;;;6.20;;
73107;SDS011;61559;50.476;15.588;2023-04-29T02:06:48;9.30;;;5.70;;
73107;SDS011;61559;50.476;15.588;2023-04-29T02:09:19;15.40;;;6.20;;
73107;SDS011;61559;50.476;15.588;2023-04-29T02:11:51;11.50;;;6.40;;
73107;SDS011;61559;50.476;15.588;2023-04-29T02:14:22;9.40;;;6.10;;
73107;SDS011;61559;50.476;15.588;2023-04-29T02:16:54;11.00;;;6.00;;
73107;SDS011;61559;50.476;15.588;2023-04-29T02:19:26;9.00;;;5.90;;
73107;SDS011;61559;50.476;15.588;2023-04-29T02:21:57;10.90;;;6.00;;
73107;SDS011;61559;50.476;15.588;2023-04-29T02:24:28;12.50;;;6.10;;
73107;SDS011;61559;50.476;15.588;2023-04-29T02:26:59;10.80;;;6.10;;
73107;SDS011;61559;50.476;15.588;2023-04-29T02:29:32;10.80;;;6.10;;
73107;SDS011;61559;50.476;15.588;2023-04-29T02:32:04;7.90;;;5.40;;
73107;SDS011;61559;50.476;15.588;2023-04-29T02:34:35;8.40;;;5.60;;
73107;SDS011;61559;50.476;15.588;2023-04-29T02:37:07;10.10;;;6.10;;
73107;SDS011;61559;50.476;15.588;2023-04-29T02:39:38;7.50;;;5.40;;
73107;SDS011;61559;50.476;15.588;2023-04-29T02:44:39;10.00;;;5.50;;
73107;SDS011;61559;50.476;15.588;2023-04-29T02:47:11;9.80;;;6.10;;
73107;SDS011;61559;50.476;15.588;2023-04-29T02:49:42;8.00;;;5.50;;
73107;SDS011;61559;50.476;15.588;2023-04-29T02:52:14;9.20;;;5.60;;
73107;SDS011;61559;50.476;15.588;2023-04-29T02:54:46;10.10;;;5.80;;
73107;SDS011;61559;50.476;15.588;2023-04-29T02:57:17;8.30;;;5.70;;
73107;SDS011;61559;50.476;15.588;2023-04-29T02:59:48;7.90;;;5.50;;
73107;SDS011;61559;50.476;15.588;2023-04-29T03:02:20;9.90;;;5.40;;
73107;SDS011;61559;50.476;15.588;2023-04-29T03:04:51;9.30;;;5.30;;
73107;SDS011;61559;50.476;15.588;2023-04-29T03:07:22;13.90;;;5.40;;
73107;SDS011;61559;50.476;15.588;2023-04-29T03:09:55;8.80;;;5.50;;
73107;SDS011;61559;50.476;15.588;2023-04-29T03:12:26;8.70;;;5.20;;
73107;SDS011;61559;50.476;15.588;2023-04-29T03:14:57;7.80;;;5.50;;
73107;SDS011;61559;50.476;15.588;2023-04-29T03:17:29;9.70;;;6.00;;
73107;SDS011;61559;50.476;15.588;2023-04-29T03:20:02;7.70;;;5.20;;
73107;SDS011;61559;50.476;15.588;2023-04-29T03:22:34;12.30;;;5.40;;
73107;SDS011;61559;50.476;15.588;2023-04-29T03:25:06;8.70;;;5.00;;
73107;SDS011;61559;50.476;15.588;2023-04-29T03:27:38;10.60;;;5.60;;
73107;SDS011;61559;50.476;15.588;2023-04-29T03:30:10;7.40;;;4.70;;
73107;SDS011;61559;50.476;15.588;2023-04-29T03:32:41;8.10;;;5.80;;
73107;SDS011;61559;50.476;15.588;2023-04-29T03:35:12;8.30;;;5.20;;
73107;SDS011;61559;50.476;15.588;2023-04-29T03:37:44;8.60;;;5.20;;
73107;SDS011;61559;50.476;15.588;2023-04-29T03:40:18;9.70;;;5.20;;
73107;SDS011;61559;50.476;15.588;2023-04-29T03:42:49;8.40;;;5.30;;
73107;SDS011;61559;50.476;15.588;2023-04-29T03:45:21;11.60;;;5.70;;
73107;SDS011;61559;50.476;15.588;2023-04-29T03:47:52;8.50;;;5.70;;
73107;SDS011;61559;50.476;15.588;2023-04-29T03:50:23;8.90;;;5.60;;
73107;SDS011;61559;50.476;15.588;2023-04-29T03:52:55;8.10;;;5.80;;
73107;SDS011;61559;50.476;15.588;2023-04-29T03:55:26;9.60;;;5.80;;
73107;SDS011;61559;50.476;15.588;2023-04-29T04:00:26;9.30;;;6.10;;
73107;SDS011;61559;50.476;15.588;2023-04-29T04:02:58;10.50;;;5.20;;
73107;SDS011;61559;50.476;15.588;2023-04-29T04:05:32;8.70;;;5.40;;
73107;SDS011;61559;50.476;15.588;2023-04-29T04:08:04;10.30;;;5.60;;
73107;SDS011;61559;50.476;15.588;2023-04-29T04:10:36;8.90;;;4.90;;
73107;SDS011;61559;50.476;15.588;2023-04-29T04:15:36;8.20;;;4.60;;
73107;SDS011;61559;50.476;15.588;2023-04-29T04:18:07;8.20;;;4.40;;
73107;SDS011;61559;50.476;15.588;2023-04-29T04:20:39;7.40;;;4.60;;
73107;SDS011;61559;50.476;15.588;2023-04-29T04:25:40;7.30;;;4.50;;
73107;SDS011;61559;50.476;15.588;2023-04-29T04:28:14;7.90;;;5.20;;
73107;SDS011;61559;50.476;15.588;2023-04-29T04:30:46;9.10;;;5.10;;
73107;SDS011;61559;50.476;15.588;2023-04-29T04:33:18;7.30;;;5.00;;
73107;SDS011;61559;50.476;15.588;2023-04-29T04:35:49;8.80;;;5.90;;
73107;SDS011;61559;50.476;15.588;2023-04-29T04:38:20;8.60;;;6.30;;
73107;SDS011;61559;50.476;15.588;2023-04-29T04:40:52;14.10;;;7.30;;
73107;SDS011;61559;50.476;15.588;2023-04-29T04:45:53;11.20;;;7.20;;
73107;SDS011;61559;50.476;15.588;2023-04-29T04:48:24;10.50;;;7.10;;
73107;SDS011;61559;50.476;15.588;2023-04-29T04:50:55;16.10;;;7.90;;
73107;SDS011;61559;50.476;15.588;2023-04-29T04:53:27;10.10;;;6.60;;
73107;SDS011;61559;50.476;15.588;2023-04-29T04:56:00;12.90;;;6.70;;
73107;SDS011;61559;50.476;15.588;2023-04-29T04:58:32;8.20;;;6.00;;
73107;SDS011;61559;50.476;15.588;2023-04-29T05:01:03;10.20;;;6.70;;
73107;SDS011;61559;50.476;15.588;2023-04-29T05:03:34;9.40;;;6.40;;
73107;SDS011;61559;50.476;15.588;2023-04-29T05:06:05;13.70;;;6.00;;
73107;SDS011;61559;50.476;15.588;2023-04-29T05:08:37;8.70;;;5.60;;
73107;SDS011;61559;50.476;15.588;2023-04-29T05:11:15;9.40;;;6.40;;
73107;SDS011;61559;50.476;15.588;2023-04-29T05:13:47;14.70;;;6.40;;
73107;SDS011;61559;50.476;15.588;2023-04-29T05:16:18;10.50;;;6.50;;
73107;SDS011;61559;50.476;15.588;2023-04-29T05:18:50;11.20;;;6.60;;
73107;SDS011;61559;50.476;15.588;2023-04-29T05:23:50;11.10;;;6.50;;
73107;SDS011;61559;50.476;15.588;2023-04-29T05:28:51;10.80;;;6.30;;
73107;SDS011;61559;50.476;15.588;2023-04-29T05:31:22;11.00;;;6.60;;
73107;SDS011;61559;50.476;15.588;2023-04-29T05:33:53;12.40;;;7.40;;
73107;SDS011;61559;50.476;15.588;2023-04-29T05:38:55;14.30;;;6.90;;
73107;SDS011;61559;50.476;15.588;2023-04-29T05:41:26;11.00;;;8.40;;
73107;SDS011;61559;50.476;15.588;2023-04-29T05:43:57;12.50;;;7.00;;
73107;SDS011;61559;50.476;15.588;2023-04-29T05:46:28;11.70;;;7.60;;
73107;SDS011;61559;50.476;15.588;2023-04-29T05:49:00;12.70;;;7.30;;
73107;SDS011;61559;50.476;15.588;2023-04-29T05:51:31;12.70;;;8.20;;
73107;SDS011;61559;50.476;15.588;2023-04-29T05:54:02;14.90;;;8.60;;
73107;SDS011;61559;50.476;15.588;2023-04-29T05:56:33;14.00;;;8.10;;
73107;SDS011;61559;50.476;15.588;2023-04-29T05:59:04;20.40;;;10.90;;
73107;SDS011;61559;50.476;15.588;2023-04-29T06:04:06;14.00;;;8.60;;
73107;SDS011;61559;50.476;15.588;2023-04-29T06:06:37;13.60;;;8.60;;
73107;SDS011;61559;50.476;15.588;2023-04-29T06:09:09;15.80;;;8.80;;
73107;SDS011;61559;50.476;15.588;2023-04-29T06:11:54;13.70;;;8.70;;
73107;SDS011;61559;50.476;15.588;2023-04-29T06:14:26;15.20;;;9.10;;
73107;SDS011;61559;50.476;15.588;2023-04-29T06:16:57;21.40;;;9.90;;
73107;SDS011;61559;50.476;15.588;2023-04-29T06:19:28;16.00;;;8.50;;
73107;SDS011;61559;50.476;15.588;2023-04-29T06:22:01;13.00;;;8.60;;
73107;SDS011;61559;50.476;15.588;2023-04-29T06:24:32;22.00;;;14.00;;
73107;SDS011;61559;50.476;15.588;2023-04-29T06:27:03;21.20;;;13.10;;
73107;SDS011;61559;50.476;15.588;2023-04-29T06:32:04;40.10;;;20.70;;
73107;SDS011;61559;50.476;15.588;2023-04-29T06:34:36;20.50;;;11.90;;
73107;SDS011;61559;50.476;15.588;2023-04-29T06:37:07;22.40;;;13.50;;
73107;SDS011;61559;50.476;15.588;2023-04-29T06:39:39;27.90;;;14.40;;
73107;SDS011;61559;50.476;15.588;2023-04-29T06:42:10;102.40;;;54.60;;
73107;SDS011;61559;50.476;15.588;2023-04-29T06:44:41;52.50;;;27.10;;
73107;SDS011;61559;50.476;15.588;2023-04-29T06:47:13;20.40;;;12.50;;
73107;SDS011;61559;50.476;15.588;2023-04-29T06:49:44;21.20;;;12.30;;
73107;SDS011;61559;50.476;15.588;2023-04-29T06:52:15;16.10;;;10.00;;
73107;SDS011;61559;50.476;15.588;2023-04-29T06:54:46;16.80;;;10.00;;
73107;SDS011;61559;50.476;15.588;2023-04-29T06:57:17;15.10;;;9.60;;
73107;SDS011;61559;50.476;15.588;2023-04-29T06:59:49;16.40;;;9.30;;
73107;SDS011;61559;50.476;15.588;2023-04-29T07:02:20;16.10;;;9.60;;
73107;SDS011;61559;50.476;15.588;2023-04-29T07:04:51;14.60;;;9.40;;
73107;SDS011;61559;50.476;15.588;2023-04-29T07:07:23;18.50;;;11.20;;
73107;SDS011;61559;50.476;15.588;2023-04-29T07:09:54;17.20;;;9.00;;
73107;SDS011;61559;50.476;15.588;2023-04-29T07:12:25;14.50;;;10.50;;
73107;SDS011;61559;50.476;15.588;2023-04-29T07:14:57;22.00;;;13.80;;
73107;SDS011;61559;50.476;15.588;2023-04-29T07:17:29;40.20;;;25.90;;
73107;SDS011;61559;50.476;15.588;2023-04-29T07:20:01;16.20;;;11.00;;
73107;SDS011;61559;50.476;15.588;2023-04-29T07:22:32;13.20;;;8.50;;
73107;SDS011;61559;50.476;15.588;2023-04-29T07:25:03;14.40;;;8.30;;
73107;SDS011;61559;50.476;15.588;2023-04-29T07:27:35;15.60;;;9.30;;
73107;SDS011;61559;50.476;15.588;2023-04-29T07:30:07;16.10;;;9.10;;
73107;SDS011;61559;50.476;15.588;2023-04-29T07:32:38;13.80;;;8.80;;
73107;SDS011;61559;50.476;15.588;2023-04-29T07:35:09;14.00;;;8.70;;
73107;SDS011;61559;50.476;15.588;2023-04-29T07:37:40;17.80;;;10.90;;
73107;SDS011;61559;50.476;15.588;2023-04-29T07:40:12;13.90;;;8.90;;
73107;SDS011;61559;50.476;15.588;2023-04-29T07:42:44;13.00;;;8.70;;
73107;SDS011;61559;50.476;15.588;2023-04-29T07:45:15;14.20;;;8.80;;
73107;SDS011;61559;50.476;15.588;2023-04-29T07:47:46;13.10;;;9.10;;
73107;SDS011;61559;50.476;15.588;2023-04-29T07:50:17;13.20;;;7.80;;
73107;SDS011;61559;50.476;15.588;2023-04-29T07:52:49;12.90;;;8.40;;
73107;SDS011;61559;50.476;15.588;2023-04-29T07:55:22;12.30;;;8.50;;
73107;SDS011;61559;50.476;15.588;2023-04-29T07:57:54;13.10;;;8.60;;
73107;SDS011;61559;50.476;15.588;2023-04-29T08:00:27;15.90;;;8.40;;
73107;SDS011;61559;50.476;15.588;2023-04-29T08:02:59;10.30;;;7.20;;
73107;SDS011;61559;50.476;15.588;2023-04-29T08:05:30;11.90;;;7.70;;
73107;SDS011;61559;50.476;15.588;2023-04-29T08:08:02;14.60;;;8.20;;
73107;SDS011;61559;50.476;15.588;2023-04-29T08:10:36;13.70;;;8.50;;
73107;SDS011;61559;50.476;15.588;2023-04-29T08:13:10;15.60;;;11.50;;
73107;SDS011;61559;50.476;15.588;2023-04-29T08:15:41;12.40;;;8.30;;
73107;SDS011;61559;50.476;15.588;2023-04-29T08:18:12;15.80;;;11.70;;
73107;SDS011;61559;50.476;15.588;2023-04-29T08:20:43;11.60;;;7.60;;
73107;SDS011;61559;50.476;15.588;2023-04-29T08:23:15;15.80;;;9.30;;
73107;SDS011;61559;50.476;15.588;2023-04-29T08:25:46;12.40;;;8.20;;
73107;SDS011;61559;50.476;15.588;2023-04-29T08:28:19;12.20;;;8.60;;
73107;SDS011;61559;50.476;15.588;2023-04-29T08:30:50;15.10;;;8.40;;
73107;SDS011;61559;50.476;15.588;2023-04-29T08:33:22;12.60;;;8.30;;
73107;SDS011;61559;50.476;15.588;2023-04-29T08:35:58;13.80;;;7.90;;
73107;SDS011;61559;50.476;15.588;2023-04-29T08:38:30;12.60;;;8.20;;
73107;SDS011;61559;50.476;15.588;2023-04-29T08:41:02;10.90;;;7.90;;
73107;SDS011;61559;50.476;15.588;2023-04-29T08:43:35;12.80;;;8.00;;
73107;SDS011;61559;50.476;15.588;2023-04-29T08:46:07;14.00;;;8.60;;
73107;SDS011;61559;50.476;15.588;2023-04-29T08:48:40;14.00;;;8.50;;
73107;SDS011;61559;50.476;15.588;2023-04-29T08:51:12;14.30;;;10.10;;
73107;SDS011;61559;50.476;15.588;2023-04-29T08:53:43;13.40;;;8.90;;
73107;SDS011;61559;50.476;15.588;2023-04-29T08:56:15;15.00;;;9.10;;
73107;SDS011;61559;50.476;15.588;2023-04-29T08:58:49;13.00;;;9.40;;
73107;SDS011;61559;50.476;15.588;2023-04-29T09:01:21;13.80;;;9.50;;
73107;SDS011;61559;50.476;15.588;2023-04-29T09:03:59;18.00;;;12.00;;
73107;SDS011;61559;50.476;15.588;2023-04-29T09:06:38;13.20;;;9.20;;
73107;SDS011;61559;50.476;15.588;2023-04-29T09:09:09;14.30;;;10.30;;
73107;SDS011;61559;50.476;15.588;2023-04-29T09:11:42;17.20;;;10.80;;
73107;SDS011;61559;50.476;15.588;2023-04-29T09:14:14;17.30;;;11.30;;
73107;SDS011;61559;50.476;15.588;2023-04-29T09:16:47;18.30;;;12.90;;
73107;SDS011;61559;50.476;15.588;2023-04-29T09:19:31;17.60;;;12.40;;
73107;SDS011;61559;50.476;15.588;2023-04-29T09:22:03;18.00;;;11.10;;
73107;SDS011;61559;50.476;15.588;2023-04-29T09:24:35;14.90;;;10.40;;
73107;SDS011;61559;50.476;15.588;2023-04-29T09:27:09;15.70;;;10.20;;
73107;SDS011;61559;50.476;15.588;2023-04-29T09:30:00;21.20;;;15.30;;
73107;SDS011;61559;50.476;15.588;2023-04-29T09:32:32;15.70;;;10.40;;
73107;SDS011;61559;50.476;15.588;2023-04-29T09:35:25;19.30;;;11.60;;
73107;SDS011;61559;50.476;15.588;2023-04-29T09:38:07;17.20;;;10.20;;
73107;SDS011;61559;50.476;15.588;2023-04-29T09:40:40;22.60;;;14.00;;
73107;SDS011;61559;50.476;15.588;2023-04-29T09:43:25;22.10;;;12.00;;
73107;SDS011;61559;50.476;15.588;2023-04-29T09:45:57;18.30;;;10.10;;
73107;SDS011;61559;50.476;15.588;2023-04-29T09:48:31;18.20;;;9.80;;
73107;SDS011;61559;50.476;15.588;2023-04-29T09:51:02;17.50;;;10.60;;
73107;SDS011;61559;50.476;15.588;2023-04-29T09:53:34;20.60;;;10.90;;
73107;SDS011;61559;50.476;15.588;2023-04-29T09:56:06;20.80;;;11.90;;
73107;SDS011;61559;50.476;15.588;2023-04-29T09:58:37;18.40;;;10.50;;
73107;SDS011;61559;50.476;15.588;2023-04-29T10:01:08;13.90;;;9.50;;
73107;SDS011;61559;50.476;15.588;2023-04-29T10:03:40;19.70;;;10.70;;
73107;SDS011;61559;50.476;15.588;2023-04-29T10:06:13;18.30;;;9.90;;
73107;SDS011;61559;50.476;15.588;2023-04-29T10:08:47;24.80;;;19.70;;
73107;SDS011;61559;50.476;15.588;2023-04-29T10:11:19;14.30;;;9.60;;
73107;SDS011;61559;50.476;15.588;2023-04-29T10:13:50;13.70;;;9.20;;
73107;SDS011;61559;50.476;15.588;2023-04-29T10:16:26;18.10;;;11.00;;
73107;SDS011;61559;50.476;15.588;2023-04-29T10:19:02;14.20;;;9.60;;
73107;SDS011;61559;50.476;15.588;2023-04-29T10:21:36;14.40;;;9.00;;
73107;SDS011;61559;50.476;15.588;2023-04-29T10:24:07;14.50;;;10.10;;
73107;SDS011;61559;50.476;15.588;2023-04-29T10:26:42;15.90;;;9.70;;
73107;SDS011;61559;50.476;15.588;2023-04-29T10:29:15;15.30;;;9.60;;
73107;SDS011;61559;50.476;15.588;2023-04-29T10:31:47;19.60;;;10.30;;
73107;SDS011;61559;50.476;15.588;2023-04-29T10:34:19;14.40;;;9.40;;
73107;SDS011;61559;50.476;15.588;2023-04-29T10:36:50;15.40;;;9.50;;
73107;SDS011;61559;50.476;15.588;2023-04-29T10:39:25;15.40;;;10.20;;
73107;SDS011;61559;50.476;15.588;2023-04-29T10:42:04;14.10;;;9.50;;
73107;SDS011;61559;50.476;15.588;2023-04-29T10:53:36;13.20;;;8.80;;
73107;SDS011;61559;50.476;15.588;2023-04-29T10:56:43;18.80;;;11.40;;
73107;SDS011;61559;50.476;15.588;2023-04-29T10:59:20;14.40;;;10.00;;
73107;SDS011;61559;50.476;15.588;2023-04-29T11:02:11;14.80;;;9.70;;
73107;SDS011;61559;50.476;15.588;2023-04-29T11:07:37;15.90;;;9.50;;
73107;SDS011;61559;50.476;15.588;2023-04-29T11:10:09;15.30;;;10.20;;
73107;SDS011;61559;50.476;15.588;2023-04-29T11:12:41;19.10;;;11.90;;
73107;SDS011;61559;50.476;15.588;2023-04-29T11:15:13;25.60;;;14.80;;
73107;SDS011;61559;50.476;15.588;2023-04-29T11:17:47;23.90;;;14.80;;
73107;SDS011;61559;50.476;15.588;2023-04-29T11:20:19;22.20;;;14.50;;
73107;SDS011;61559;50.476;15.588;2023-04-29T11:22:52;16.30;;;10.40;;
73107;SDS011;61559;50.476;15.588;2023-04-29T11:25:25;16.50;;;11.00;;
73107;SDS011;61559;50.476;15.588;2023-04-29T11:27:57;16.20;;;9.90;;
73107;SDS011;61559;50.476;15.588;2023-04-29T11:30:29;15.10;;;9.30;;
73107;SDS011;61559;50.476;15.588;2023-04-29T11:33:01;14.80;;;10.10;;
73107;SDS011;61559;50.476;15.588;2023-04-29T11:35:32;18.60;;;13.40;;
73107;SDS011;61559;50.476;15.588;2023-04-29T11:38:08;17.00;;;12.00;;
73107;SDS011;61559;50.476;15.588;2023-04-29T11:40:41;18.20;;;11.70;;
73107;SDS011;61559;50.476;15.588;2023-04-29T11:43:17;17.70;;;12.10;;
73107;SDS011;61559;50.476;15.588;2023-04-29T11:45:50;14.00;;;9.50;;
73107;SDS011;61559;50.476;15.588;2023-04-29T11:48:22;14.00;;;9.00;;
73107;SDS011;61559;50.476;15.588;2023-04-29T11:50:56;14.90;;;8.70;;
73107;SDS011;61559;50.476;15.588;2023-04-29T11:53:29;15.00;;;9.20;;
73107;SDS011;61559;50.476;15.588;2023-04-29T11:56:00;15.10;;;9.80;;
73107;SDS011;61559;50.476;15.588;2023-04-29T11:58:31;12.70;;;9.50;;
73107;SDS011;61559;50.476;15.588;2023-04-29T12:01:03;10.30;;;7.40;;
73107;SDS011;61559;50.476;15.588;2023-04-29T12:03:35;9.20;;;5.90;;
73107;SDS011;61559;50.476;15.588;2023-04-29T12:06:08;10.40;;;7.60;;
73107;SDS011;61559;50.476;15.588;2023-04-29T12:08:39;9.10;;;6.70;;
73107;SDS011;61559;50.476;15.588;2023-04-29T12:11:10;9.60;;;6.50;;
73107;SDS011;61559;50.476;15.588;2023-04-29T12:13:41;7.00;;;5.70;;
73107;SDS011;61559;50.476;15.588;2023-04-29T12:16:13;8.50;;;6.00;;
73107;SDS011;61559;50.476;15.588;2023-04-29T12:18:44;9.60;;;7.00;;
73107;SDS011;61559;50.476;15.588;2023-04-29T12:21:15;6.50;;;4.20;;
73107;SDS011;61559;50.476;15.588;2023-04-29T12:23:46;6.30;;;4.50;;
73107;SDS011;61559;50.476;15.588;2023-04-29T12:26:19;7.80;;;4.60;;
73107;SDS011;61559;50.476;15.588;2023-04-29T12:28:53;5.50;;;4.10;;
73107;SDS011;61559;50.476;15.588;2023-04-29T12:31:33;6.40;;;4.40;;
73107;SDS011;61559;50.476;15.588;2023-04-29T12:34:04;6.90;;;5.60;;
73107;SDS011;61559;50.476;15.588;2023-04-29T12:36:40;7.50;;;5.20;;
73107;SDS011;61559;50.476;15.588;2023-04-29T12:39:12;6.10;;;4.50;;
73107;SDS011;61559;50.476;15.588;2023-04-29T12:41:43;5.90;;;4.10;;
73107;SDS011;61559;50.476;15.588;2023-04-29T12:44:14;7.20;;;4.20;;
73107;SDS011;61559;50.476;15.588;2023-04-29T12:46:46;6.40;;;4.10;;
73107;SDS011;61559;50.476;15.588;2023-04-29T12:49:17;5.90;;;4.40;;
73107;SDS011;61559;50.476;15.588;2023-04-29T12:51:48;5.70;;;4.10;;
73107;SDS011;61559;50.476;15.588;2023-04-29T12:54:19;6.00;;;4.20;;
73107;SDS011;61559;50.476;15.588;2023-04-29T12:56:50;5.10;;;3.80;;
73107;SDS011;61559;50.476;15.588;2023-04-29T12:59:22;4.30;;;2.90;;
73107;SDS011;61559;50.476;15.588;2023-04-29T13:01:53;5.80;;;3.90;;
73107;SDS011;61559;50.476;15.588;2023-04-29T13:04:24;6.30;;;4.00;;
73107;SDS011;61559;50.476;15.588;2023-04-29T13:06:56;5.40;;;3.30;;
73107;SDS011;61559;50.476;15.588;2023-04-29T13:09:28;18.80;;;9.80;;
73107;SDS011;61559;50.476;15.588;2023-04-29T13:11:59;14.80;;;7.50;;
73107;SDS011;61559;50.476;15.588;2023-04-29T13:14:31;13.80;;;6.30;;
73107;SDS011;61559;50.476;15.588;2023-04-29T13:17:02;48.10;;;25.40;;
73107;SDS011;61559;50.476;15.588;2023-04-29T13:19:33;85.10;;;47.50;;
73107;SDS011;61559;50.476;15.588;2023-04-29T13:22:18;4.90;;;4.20;;
73107;SDS011;61559;50.476;15.588;2023-04-29T13:24:49;2.90;;;2.60;;
73107;SDS011;61559;50.476;15.588;2023-04-29T13:27:21;3.10;;;2.60;;
73107;SDS011;61559;50.476;15.588;2023-04-29T13:29:52;4.20;;;2.70;;
73107;SDS011;61559;50.476;15.588;2023-04-29T13:32:23;2.80;;;2.40;;
73107;SDS011;61559;50.476;15.588;2023-04-29T13:35:11;4.20;;;2.70;;
73107;SDS011;61559;50.476;15.588;2023-04-29T13:37:43;4.00;;;2.60;;
73107;SDS011;61559;50.476;15.588;2023-04-29T13:40:15;5.00;;;3.00;;
73107;SDS011;61559;50.476;15.588;2023-04-29T13:42:48;6.30;;;3.30;;
73107;SDS011;61559;50.476;15.588;2023-04-29T13:45:33;4.90;;;3.30;;
73107;SDS011;61559;50.476;15.588;2023-04-29T13:48:10;6.00;;;4.10;;
73107;SDS011;61559;50.476;15.588;2023-04-29T13:51:02;7.50;;;4.80;;
73107;SDS011;61559;50.476;15.588;2023-04-29T13:53:53;5.70;;;3.90;;
73107;SDS011;61559;50.476;15.588;2023-04-29T13:56:44;8.90;;;6.00;;
73107;SDS011;61559;50.476;15.588;2023-04-29T13:59:18;6.40;;;4.20;;
73107;SDS011;61559;50.476;15.588;2023-04-29T14:01:52;5.00;;;3.60;;
73107;SDS011;61559;50.476;15.588;2023-04-29T14:04:44;5.60;;;4.20;;
73107;SDS011;61559;50.476;15.588;2023-04-29T14:07:15;4.60;;;3.10;;
73107;SDS011;61559;50.476;15.588;2023-04-29T14:09:46;4.20;;;2.70;;
73107;SDS011;61559;50.476;15.588;2023-04-29T14:12:17;4.80;;;3.40;;
73107;SDS011;61559;50.476;15.588;2023-04-29T14:14:48;4.20;;;3.00;;
73107;SDS011;61559;50.476;15.588;2023-04-29T14:17:20;3.40;;;2.50;;
73107;SDS011;61559;50.476;15.588;2023-04-29T14:19:51;4.80;;;4.20;;
73107;SDS011;61559;50.476;15.588;2023-04-29T14:22:23;5.10;;;2.50;;
73107;SDS011;61559;50.476;15.588;2023-04-29T14:24:54;3.60;;;2.50;;
73107;SDS011;61559;50.476;15.588;2023-04-29T14:27:25;4.50;;;2.20;;
73107;SDS011;61559;50.476;15.588;2023-04-29T14:29:56;5.90;;;2.30;;
73107;SDS011;61559;50.476;15.588;2023-04-29T14:32:28;3.30;;;2.10;;
73107;SDS011;61559;50.476;15.588;2023-04-29T14:34:59;2.80;;;2.20;;
73107;SDS011;61559;50.476;15.588;2023-04-29T14:37:30;3.20;;;1.90;;
73107;SDS011;61559;50.476;15.588;2023-04-29T14:40:01;3.50;;;2.70;;
73107;SDS011;61559;50.476;15.588;2023-04-29T14:42:33;4.30;;;2.40;;
73107;SDS011;61559;50.476;15.588;2023-04-29T14:45:05;4.20;;;2.10;;
73107;SDS011;61559;50.476;15.588;2023-04-29T14:47:37;7.10;;;3.10;;
73107;SDS011;61559;50.476;15.588;2023-04-29T14:50:09;4.60;;;2.70;;
73107;SDS011;61559;50.476;15.588;2023-04-29T14:52:40;2.90;;;2.30;;
73107;SDS011;61559;50.476;15.588;2023-04-29T14:55:11;3.60;;;3.10;;
73107;SDS011;61559;50.476;15.588;2023-04-29T14:57:42;4.00;;;2.70;;
73107;SDS011;61559;50.476;15.588;2023-04-29T15:00:14;3.60;;;2.30;;
73107;SDS011;61559;50.476;15.588;2023-04-29T15:02:46;2.50;;;2.10;;
73107;SDS011;61559;50.476;15.588;2023-04-29T15:05:17;3.80;;;2.30;;
73107;SDS011;61559;50.476;15.588;2023-04-29T15:07:48;3.70;;;1.90;;
73107;SDS011;61559;50.476;15.588;2023-04-29T15:10:20;3.10;;;2.40;;
73107;SDS011;61559;50.476;15.588;2023-04-29T15:12:51;3.00;;;2.40;;
73107;SDS011;61559;50.476;15.588;2023-04-29T15:15:23;5.00;;;2.80;;
73107;SDS011;61559;50.476;15.588;2023-04-29T15:17:54;3.90;;;2.70;;
73107;SDS011;61559;50.476;15.588;2023-04-29T15:20:25;3.20;;;2.30;;
73107;SDS011;61559;50.476;15.588;2023-04-29T15:22:56;3.70;;;2.80;;
73107;SDS011;61559;50.476;15.588;2023-04-29T15:25:28;4.20;;;3.80;;
73107;SDS011;61559;50.476;15.588;2023-04-29T15:28:01;3.90;;;3.20;;
73107;SDS011;61559;50.476;15.588;2023-04-29T15:30:32;4.40;;;3.30;;
73107;SDS011;61559;50.476;15.588;2023-04-29T15:33:04;4.20;;;3.10;;
73107;SDS011;61559;50.476;15.588;2023-04-29T15:35:35;3.60;;;2.80;;
73107;SDS011;61559;50.476;15.588;2023-04-29T15:38:06;3.90;;;2.50;;